Extreme weather reports worldwide

Highest temperatures

Station
 
Location
 
Name
 
Wind
Knots
Gust
Knots
Vis
SM
Temp/Dew
C
Baro
inHg
METAR
 
CIO SGCO Concepción, PY Teniente Col Carmelo Peralta Airport 10 6.21 41/14 29.68 SGCO 182100Z 05010KT 9999 FEW033 SCT200 41/14 Q1005
FMA SARF Formosa, AR Formosa Airport 5 5.59 39/14 29.70 SARF 182100Z 32005KT 9000 NSC 39/14 Q1006
GEL SBNM Santo Ângelo, BR Santo Ângelo Airport 4 6.21 39/16 29.85 SBNM 182100Z AUTO 32004KT 290V060 CAVOK 39/16 Q1011
ENO SGEN Encarnación, PY Encarnación Airport 10 6.21 39/16 29.73 SGEN 182100Z 35010KT CAVOK 39/16 Q1007
IGR SARI Puerto Iguazu, AR Cataratas Del Iguazú International Airport 5 6.21 38/18 29.82 SARI 182100Z 36005KT 9999 FEW030 SCT200 38/18 Q1010

Station
 
Location
 
Name
 
Wind
Knots
Gust
Knots
Vis
SM
Temp/Dew
C
Baro
inHg
METAR
 
PSS SARP Posadas, AR Libertador Gral D Jose De San Martin Airport 10 4.97 38/18 29.79 SARP 182100Z 20010KT 8000 NSC 38/18 Q1009
IGU SBFI Foz Do Iguaçu, BR Cataratas International Airport 5 6.21 38/15 29.82 SBFI 182200Z 33005KT 9999 FEW035 38/15 Q1010
ASU SGAS Asunción, PY Silvio Pettirossi International Airport 6 6.21 38/16 29.76 SGAS 182200Z 07006KT 9999 FEW033 SCT080 38/16 Q1008
CMG SBCR Corumbá, BR Corumbá International Airport 7 6.21 37/19 29.76 SBCR 182100Z 04007KT 340V090 9999 FEW050TCU 37/19 Q1008
AGT SGES Ciudad del Este, PY Guarani International Airport 5 6.21 37/17 29.79 SGES 182200Z 11005KT 9999 SCT033 37/17 Q1009
MSSM San Miguel, SV El Papalon Airport 3 6.21 36/16 29.79 MSSM 182050Z 19003KT CAVOK 36/16 Q1009 A2982
CNQ SARC Corrientes, AR Corrientes Airport 12 3.73 36/21 29.76 SARC 182100Z 18012KT 6000 SCT025 BKN100 BKN200 36/21 Q1008
MHCH 8 6.21 36/20 MHCH 182200Z 02008KT 9999 FEW034 36/20
PMG SBPP Ponta Porã, BR Ponta Porã Airport 2 6.21 35/15 29.91 SBPP 182100Z 01002KT 9999 FEW020 FEW025TCU 35/15 Q1013
SJS SLJE San José de Chiquitos, BO San José De Chiquitos Airport 5 6.21 35/24 29.85 SLJE 182100Z 36005KT 9999 FEW017 35/24 Q1011
RBO SLRB Roboré, BO Roboré Airport 12 6.21 35/23 29.85 SLRB 182100Z 36012KT 9999 FEW020 35/23 Q1011
MSLU 8 6.21 34/16 29.79 MSLU 182050Z 14008KT CAVOK 34/16 Q1009 A2981
SBAF Rio De Janeiro, BR Campo Délio Jardim de Mattos Airport 9 6.21 34/23 29.85 SBAF 182100Z 25009KT 9999 FEW025 34/23 Q1011
MTR SKMR Montería, CO Los Garzones Airport 4 6.21 34/22 29.73 SKMR 182100Z VRB04KT 9999 FEW020 34/22 Q1007 RMK A2975
PCR SKPC Puerto Carreño, CO German Olano Airport 10 6.21 34/19 29.76 SKPC 182100Z 05010KT 9999 FEW023 34/19 Q1008 RMK A2976
VUP SKVP Valledupar, CO Alfonso López Pumarejo Airport 15 6.21 34/16 29.82 SKVP 182100Z 07015KT 9999 FEW020 34/16 Q1010 RMK A2982
PSZ SLPS Puerto Suárez, BO Capitán Av. Salvador Ogaya G. airport 4 6.21 34/23 29.79 SLPS 182100Z 36004KT 9999 SCT017 34/23 Q1009
YMS SPMS Yurimaguas, PE Moises Benzaquen Rengifo Airport 5 6.21 34/23 29.73 SPMS 182100Z 33005KT 9999 SCT020 34/23 Q1007 RMK BIRD HAZARD RWY 09/27 PP000
TPP SPST Tarapoto, PE Cadete FAP Guillermo Del Castillo Paredes Airport 7 6.21 34/21 29.70 SPST 182200Z 03007KT 9999 FEW020 34/21 Q1006 RMK BIRD HAZARD RWY 17/35 TX35.7 PP000
RES SARE Resistencia, AR Resistencia International Airport 14 3.73 33/21 29.76 SARE 182100Z 20014KT 6000 NSC 33/21 Q1008 RMK PP///
AOL SARL Paso de los Libres, AR Paso De Los Libres Airport 14 4.97 33/23 29.82 SARL 182100Z 16014KT 8000 NSC 33/23 Q1010
SBJR Rio De Janeiro, BR Jacarepaguá - Roberto Marinho Airport 9 6.21 33/22 29.85 SBJR 182100Z 13009KT 9999 FEW030 FEW035TCU 33/22 Q1011
NVA SKNV Neiva, CO Benito Salas Airport 5 6.21 33/19 29.76 SKNV 182100Z 15005KT 110V200 9999 VCSH FEW030 SCT100 33/19 Q1008 RMK VCSH/S A2977
SMR SKSM Santa Marta, CO Simón Bolívar International Airport 14 6.21 33/21 29.79 SKSM 182100Z 03014KT 9999 FEW020 SCT200 33/21 Q1009 RMK A2980
AUC SKUC Arauca, CO Santiago Perez Airport 4 6.21 33/21 29.79 SKUC 182100Z 08004KT 9999 FEW020 33/21 Q1009 RMK A2981
BNS SVBI Barinas, VE Barinas Airport 6 33/19 29.94 SVBI 182103Z AUTO 03006KT NCD 33/19 Q1014
GDO SVGD VE Guasdalito Airport 4 33/20 29.85 SVGD 182103Z AUTO 04004KT NCD 33/20 Q1011
GUQ SVGU Guanare, VE Guanare Airport 7 33/19 29.85 SVGU 182103Z AUTO 09007KT NCD 33/19 Q1011
SVJM San Juan de los Morros, VE San Juan de Los Morros Airport 4 33/12 29.85 SVJM 182103Z AUTO 18004KT NCD 33/12 Q1011
MNCH Chinandega, NI Chinandega Airport 4 6.21 32/21 29.82 MNCH 182100Z 18004KT 9999 FEW025 32/21 Q1010
MGA MNMG Managua, NI Augusto C. Sandino (Managua) International Airport 20 6.21 32/17 29.82 MNMG 182100Z 08020KT 9999 FEW023 32/17 Q1010 A2984 NOSIG
GIG SBGL Rio De Janeiro, BR Rio Galeão – Tom Jobim International Airport 11 6.21 32/24 29.82 SBGL 182100Z 13011KT 9999 FEW023 32/24 Q1010
SNZ SBSC Rio de Janeiro, BR Santa Cruz Air Force Base 13 6.21 32/23 29.85 SBSC 182100Z 12013KT 9999 FEW030TCU SCT074 32/23 Q1011
RIA SBSM Santa Maria, BR Santa Maria Airport 11 6.21 32/23 29.85 SBSM 182100Z 10011KT 070V130 9999 FEW040 32/23 Q1011
MGD SLMG Magdalena, BO Magdalena Airport 4 4.97 32/25 29.73 SLMG 182100Z 32004KT 8000 TS VCSH FEW017 FEW023CB BKN200 32/25 Q1007
LTM SYLT Lethem, GY Lethem Airport 12 6.21 32/22 SYLT 182100Z 09012KT 9999 FEW028 32/22 Q//// NOSIG
PCL SPCL Pucallpa, PE Cap FAP David Abenzur Rengifo International Airport 7 6.21 32/23 29.76 SPCL 182200Z 03007KT 9999 SCT025 32/23 Q1008 RMK TX34.2 BIRD HAZARD RWY 02/20 PP000
IQT SPQT Iquitos, PE Coronel FAP Francisco Secada Vignetta International Airport 7 6.21 32/23 29.73 SPQT 182200Z 02007KT 9999 SCT018 FEW020TCU 32/23 Q1007 NOSIG RMK BIRD HAZARD RWY 06/24 TX34.9 PP000
CUL MMCL Culiacán, MX Bachigualato Federal International Airport 7 10 31/14 29.91 MMCL 182047Z 24007KT 10SM BKN230 31/14 A2991 RMK SLP126 57033 969 8/008
MSAC San Miguel, SV La Aramuaca Airport 3 6.21 31/21 29.79 MSAC 182050Z 24003KT CAVOK 31/21 Q1009 A2981
FUN NGFU Funafuti, TV Funafuti International Airport 8 6.21 31/26 29.70 NGFU 182100Z 32008KT 9999 SCT018TCU BKN110 31/26 Q1006
APW NSFA Apia, WS Faleolo International Airport 14 6.21 31/26 29.68 NSFA 182100Z 19014KT 9999 FEW022 SCT160 31/26 Q1005
BAU SBBU Bauru, BR Bauru Airport 4 6.21 31/21 29.97 SBBU 182100Z 21004KT 9999 SCT040 FEW045TCU 31/21 Q1015
MEA SBME Macaé, BR Macaé Airport 16 6.21 31/24 29.88 SBME 182100Z 08016KT CAVOK 31/24 Q1012
MGF SBMG Maringá, BR Regional de Maringá - Sílvio Name Júnior Airport 8 6.21 31/19 29.94 SBMG 182100Z 14008KT 9999 FEW040 FEW040TCU 31/19 Q1014